Time;durP1;ratioP1;P1;durP2;ratioP2;P2;SDS_P1;SDS_P2;PMS_P1;PMS_P2;Temp;Humidity;BMP_temperature;BMP_pressure;BME280_temperature;BME280_humidity;BME280_pressure;Samples;Min_cycle;Max_cycle;Signal;HPM_P1;HPM_P2
2023/05/28 00:00:20;;;;;;;6.80;5.70;;;;;;;18.10;47.43;97606.00;5014985;28;20237;-72
2023/05/28 00:02:46;;;;;;;10.60;6.30;;;;;;;18.02;47.81;97599.00;5010863;28;20184;-71
2023/05/28 00:05:11;;;;;;;9.60;5.80;;;;;;;18.01;47.72;97599.22;5021886;28;20184;-71
2023/05/28 00:07:37;;;;;;;10.93;5.90;;;;;;;17.95;47.89;97604.22;5013622;28;20560;-70
2023/05/28 00:10:03;;;;;;;9.90;6.40;;;;;;;17.90;47.84;97595.19;5016351;28;20227;-70
2023/05/28 00:12:28;;;;;;;7.87;5.63;;;;;;;17.88;48.11;97595.41;5015539;28;20267;-70
2023/05/28 00:14:54;;;;;;;13.87;6.43;;;;;;;17.83;48.24;97597.78;5013601;28;20176;-69
2023/05/28 00:17:21;;;;;;;8.13;5.40;;;;;;;17.64;48.51;97599.22;5015560;28;20191;-71
2023/05/28 00:19:46;;;;;;;13.60;6.27;;;;;;;17.59;48.85;97596.28;5022144;28;20202;-71
2023/05/28 00:22:12;;;;;;;10.93;6.80;;;;;;;17.57;48.90;97587.75;5010349;28;20414;-72
2023/05/28 00:24:37;;;;;;;8.23;5.23;;;;;;;17.57;49.11;97585.09;5017774;28;20211;-71
2023/05/28 00:27:03;;;;;;;9.10;6.20;;;;;;;17.59;48.83;97583.88;5012031;28;20219;-72
2023/05/28 00:29:29;;;;;;;12.10;5.80;;;;;;;17.57;48.93;97580.59;5015304;28;20215;-71
2023/05/28 00:31:55;;;;;;;10.37;5.20;;;;;;;17.56;48.76;97583.44;5012600;28;20600;-70
2023/05/28 00:34:24;;;;;;;10.77;5.60;;;;;;;17.46;48.72;97579.25;5012894;28;20437;-71
2023/05/28 00:36:50;;;;;;;15.33;5.60;;;;;;;17.52;48.66;97569.72;5015498;28;20208;-71
2023/05/28 00:39:16;;;;;;;10.43;5.63;;;;;;;17.47;48.61;97574.78;5017976;28;20443;-73
2023/05/28 00:41:42;;;;;;;7.53;5.00;;;;;;;17.50;48.68;97563.81;5017673;28;20181;-70
2023/05/28 00:44:08;;;;;;;9.97;5.57;;;;;;;17.40;48.75;97573.88;5011590;28;20419;-71
2023/05/28 00:46:35;;;;;;;10.33;5.80;;;;;;;17.36;49.00;97568.13;5007774;28;20215;-72
2023/05/28 00:49:01;;;;;;;11.30;5.10;;;;;;;17.35;48.90;97574.44;5014864;28;20426;-71
2023/05/28 00:51:26;;;;;;;12.73;5.50;;;;;;;17.38;48.99;97568.78;5008544;28;20459;-71
2023/05/28 00:53:52;;;;;;;16.33;6.13;;;;;;;17.34;49.05;97570.16;5015004;28;20168;-70
2023/05/28 00:56:18;;;;;;;10.80;5.10;;;;;;;17.29;49.47;97577.84;5009646;28;20184;-72
2023/05/28 00:58:48;;;;;;;8.90;5.53;;;;;;;17.24;49.22;97575.75;5008457;28;20180;-70
2023/05/28 01:01:13;;;;;;;13.40;5.40;;;;;;;17.00;49.73;97564.47;5015769;28;20463;-70
2023/05/28 01:03:39;;;;;;;8.50;5.50;;;;;;;17.10;49.33;97568.66;5016726;28;20454;-71
2023/05/28 01:06:11;;;;;;;9.37;5.57;;;;;;;17.13;49.36;97561.16;5011941;28;20452;-71
2023/05/28 01:08:40;;;;;;;8.43;5.00;;;;;;;17.12;49.50;97569.31;5015596;28;20226;-71
2023/05/28 01:11:12;;;;;;;16.03;5.50;;;;;;;17.08;49.49;97568.03;5009642;28;20451;-72
2023/05/28 01:13:38;;;;;;;8.30;4.90;;;;;;;17.07;49.68;97571.66;5007655;28;20833;-70
2023/05/28 01:16:04;;;;;;;9.43;5.63;;;;;;;16.99;49.60;97573.44;5011681;28;20427;-72
2023/05/28 01:18:31;;;;;;;10.10;5.70;;;;;;;16.93;49.84;97568.81;5014621;28;20434;-71
2023/05/28 01:20:58;;;;;;;8.20;5.20;;;;;;;16.91;49.71;97570.84;5007706;28;20535;-71
2023/05/28 01:23:25;;;;;;;9.30;4.87;;;;;;;16.90;49.77;97563.91;5012477;28;20488;-71
2023/05/28 01:25:51;;;;;;;9.13;5.63;;;;;;;16.88;50.21;97561.44;5020948;28;20923;-71
2023/05/28 01:28:16;;;;;;;8.90;5.83;;;;;;;16.83;50.36;97557.69;5011899;28;20417;-70
2023/05/28 01:30:43;;;;;;;11.93;5.67;;;;;;;16.84;49.91;97564.63;5011924;28;20212;-70
2023/05/28 01:33:10;;;;;;;9.20;5.73;;;;;;;16.79;50.09;97561.72;5015727;28;20218;-71
2023/05/28 01:35:37;;;;;;;10.97;5.30;;;;;;;16.72;50.34;97566.91;5018828;28;20426;-71
2023/05/28 01:38:03;;;;;;;10.03;5.43;;;;;;;16.74;50.27;97556.97;5010030;28;20438;-71
2023/05/28 01:40:29;;;;;;;11.33;5.23;;;;;;;16.74;50.38;97563.09;5014866;28;20467;-72
2023/05/28 01:42:56;;;;;;;10.23;6.17;;;;;;;16.69;50.31;97568.09;5020708;28;20419;-70
2023/05/28 01:45:22;;;;;;;11.33;6.33;;;;;;;16.66;50.61;97555.25;5014459;28;20182;-70
2023/05/28 01:47:48;;;;;;;9.97;5.70;;;;;;;16.62;50.53;97558.44;5024432;28;20426;-71
2023/05/28 01:50:14;;;;;;;8.47;5.20;;;;;;;16.53;50.81;97557.69;5011542;28;20495;-70
2023/05/28 01:52:40;;;;;;;11.10;5.47;;;;;;;16.43;50.94;97553.50;5012923;28;20208;-71
2023/05/28 01:55:08;;;;;;;10.57;5.90;;;;;;;16.44;50.64;97556.97;5024767;28;20180;-72
2023/05/28 01:57:34;;;;;;;10.50;5.70;;;;;;;16.40;50.96;97559.16;5027371;28;20249;-72
2023/05/28 02:00:00;;;;;;;9.77;5.73;;;;;;;16.43;50.98;97563.28;5015171;28;20501;-73
2023/05/28 02:02:28;;;;;;;8.87;6.10;;;;;;;16.41;50.74;97550.22;5012929;28;20812;-71
2023/05/28 02:04:54;;;;;;;12.60;6.30;;;;;;;16.40;50.94;97553.03;5014207;28;20181;-70
2023/05/28 02:07:19;;;;;;;9.50;5.23;;;;;;;16.43;50.59;97552.69;5017788;28;20418;-71
2023/05/28 02:09:45;;;;;;;12.57;6.20;;;;;;;16.40;50.85;97553.84;5011676;28;20203;-71
2023/05/28 02:12:11;;;;;;;11.33;5.90;;;;;;;16.32;51.13;97546.00;5013663;28;20232;-71
2023/05/28 02:14:36;;;;;;;8.90;5.30;;;;;;;16.26;51.49;97541.44;5019273;28;20234;-72
2023/05/28 02:17:02;;;;;;;9.40;5.80;;;;;;;16.17;51.28;97537.22;5014853;28;20422;-70
2023/05/28 02:19:28;;;;;;;11.27;5.47;;;;;;;16.16;51.32;97539.06;5016645;28;20707;-70
2023/05/28 02:21:54;;;;;;;10.70;5.43;;;;;;;16.09;51.92;97531.03;5010906;28;20212;-71
2023/05/28 02:24:19;;;;;;;8.93;5.60;;;;;;;15.99;51.90;97534.91;5018004;28;20436;-72
2023/05/28 02:26:45;;;;;;;8.50;5.40;;;;;;;16.06;51.69;97536.66;5019946;28;20184;-71
2023/05/28 02:29:10;;;;;;;13.33;5.50;;;;;;;16.00;52.14;97537.41;5013480;28;20259;-71
2023/05/28 02:31:36;;;;;;;6.97;5.33;;;;;;;16.01;51.94;97532.91;5024818;28;20246;-71
2023/05/28 02:34:01;;;;;;;10.63;6.03;;;;;;;15.89;52.31;97536.00;5021086;28;20179;-71
2023/05/28 02:36:27;;;;;;;9.50;5.70;;;;;;;15.92;52.12;97534.81;5010933;28;20195;-72
2023/05/28 02:38:52;;;;;;;10.97;5.70;;;;;;;15.96;52.01;97530.81;5011178;28;20271;-71
2023/05/28 02:41:18;;;;;;;14.80;6.00;;;;;;;15.88;52.18;97531.69;5024033;28;20196;-71
2023/05/28 02:43:44;;;;;;;10.90;5.93;;;;;;;15.85;51.71;97528.59;5017996;28;20556;-70
2023/05/28 02:46:09;;;;;;;9.77;5.70;;;;;;;15.86;52.19;97524.97;5023636;28;20212;-71
2023/05/28 02:48:35;;;;;;;14.80;6.20;;;;;;;15.85;52.29;97525.97;5056829;28;20511;-70
2023/05/28 02:51:00;;;;;;;9.10;5.53;;;;;;;15.87;52.11;97529.25;5022664;28;20200;-71
2023/05/28 02:53:29;;;;;;;15.33;5.53;;;;;;;15.88;52.29;97539.63;5014508;28;20382;-70
2023/05/28 02:55:55;;;;;;;9.67;6.07;;;;;;;15.89;51.99;97536.00;5014572;28;20259;-70
2023/05/28 02:58:20;;;;;;;9.93;5.30;;;;;;;15.85;51.87;97544.47;5024861;28;20419;-70
2023/05/28 03:00:46;;;;;;;11.23;5.50;;;;;;;15.72;52.56;97539.72;5015941;28;20235;-71
2023/05/28 03:03:11;;;;;;;10.93;5.50;;;;;;;15.74;52.22;97543.00;5017889;28;20266;-71
2023/05/28 03:05:36;;;;;;;10.93;5.57;;;;;;;15.68;52.33;97539.25;5010371;28;20288;-71
2023/05/28 03:08:03;;;;;;;12.07;6.63;;;;;;;15.72;52.26;97539.72;5008738;28;20212;-71
2023/05/28 03:10:28;;;;;;;7.90;4.97;;;;;;;15.63;52.44;97541.59;5017269;28;20742;-70
2023/05/28 03:12:54;;;;;;;9.20;5.77;;;;;;;15.64;52.47;97546.72;5016857;28;20424;-72
2023/05/28 03:15:19;;;;;;;11.30;5.87;;;;;;;15.56;52.63;97538.03;5014090;28;20222;-72
2023/05/28 03:17:45;;;;;;;9.20;5.70;;;;;;;15.44;52.71;97549.00;5011263;28;20215;-70
2023/05/28 03:20:11;;;;;;;15.73;6.20;;;;;;;15.47;52.71;97548.66;5009256;28;20785;-71
2023/05/28 03:22:37;;;;;;;9.60;5.70;;;;;;;15.44;52.84;97551.66;5019069;28;20823;-70
2023/05/28 03:25:04;;;;;;;10.63;5.47;;;;;;;15.46;52.90;97556.75;5014250;28;20419;-70
2023/05/28 03:27:30;;;;;;;12.13;5.80;;;;;;;15.51;52.54;97554.41;5010545;28;20539;-72
2023/05/28 03:29:55;;;;;;;10.33;5.67;;;;;;;15.46;52.69;97554.94;5007875;28;20448;-72
2023/05/28 03:32:21;;;;;;;7.50;5.73;;;;;;;15.40;52.87;97555.63;5012083;28;20728;-71
2023/05/28 03:34:46;;;;;;;10.30;5.90;;;;;;;15.40;52.83;97545.06;5009381;28;20263;-71
2023/05/28 03:37:12;;;;;;;11.83;6.10;;;;;;;15.45;52.89;97550.66;5012704;28;20247;-72
2023/05/28 03:39:37;;;;;;;11.70;5.50;;;;;;;15.45;52.88;97553.28;5017786;28;20202;-70
2023/05/28 03:42:03;;;;;;;9.73;5.67;;;;;;;15.38;52.97;97554.97;5014313;28;20191;-72
2023/05/28 03:44:28;;;;;;;8.90;5.60;;;;;;;15.24;53.12;97542.53;4998239;28;20180;-71
2023/05/28 03:46:54;;;;;;;12.53;5.50;;;;;;;15.27;53.20;97550.09;5013844;28;20274;-70
2023/05/28 03:49:19;;;;;;;11.27;6.20;;;;;;;15.07;53.64;97547.88;5009385;28;20177;-70
2023/05/28 03:51:45;;;;;;;10.57;6.37;;;;;;;15.09;53.88;97545.06;5011865;28;20205;-71
2023/05/28 03:54:10;;;;;;;7.60;6.00;;;;;;;15.13;53.76;97549.81;5008563;28;20861;-70
2023/05/28 03:56:36;;;;;;;9.33;6.00;;;;;;;15.18;53.65;97550.13;5018235;28;20184;-71
2023/05/28 03:59:01;;;;;;;7.33;5.30;;;;;;;15.19;53.64;97546.50;5008344;28;20233;-71
2023/05/28 04:01:27;;;;;;;8.07;5.70;;;;;;;15.25;53.62;97549.47;5018956;28;20192;-70
2023/05/28 04:03:53;;;;;;;9.03;5.63;;;;;;;15.14;53.86;97545.38;5005301;28;20234;-70
2023/05/28 04:06:19;;;;;;;8.67;5.10;;;;;;;15.12;54.13;97550.81;5013411;28;20173;-71
2023/05/28 04:08:44;;;;;;;10.83;5.93;;;;;;;15.24;54.06;97547.81;5015930;28;20451;-71
2023/05/28 04:11:10;;;;;;;9.97;5.97;;;;;;;15.23;53.82;97544.34;5007956;28;20696;-71
2023/05/28 04:13:35;;;;;;;10.60;6.33;;;;;;;15.20;54.15;97542.88;5012542;28;20188;-70
2023/05/28 04:16:01;;;;;;;10.93;5.60;;;;;;;15.20;54.12;97549.97;5013913;28;20176;-71
2023/05/28 04:18:26;;;;;;;8.90;6.13;;;;;;;15.23;54.27;97546.16;5024675;28;20176;-70
2023/05/28 04:20:52;;;;;;;8.60;5.43;;;;;;;15.20;54.08;97542.03;5004282;28;20685;-71
2023/05/28 04:23:17;;;;;;;10.10;5.77;;;;;;;15.26;53.99;97551.09;5011077;28;20180;-69
2023/05/28 04:25:43;;;;;;;11.30;5.30;;;;;;;15.33;54.22;97550.22;5014058;28;20708;-72
2023/05/28 04:28:08;;;;;;;11.63;5.33;;;;;;;15.35;54.45;97548.22;5009470;28;20756;-69
2023/05/28 04:30:34;;;;;;;16.53;6.50;;;;;;;15.39;54.27;97548.69;5005378;28;20295;-71
2023/05/28 04:32:59;;;;;;;10.60;6.20;;;;;;;15.44;54.33;97546.38;5007745;28;20192;-71
2023/05/28 04:35:26;;;;;;;13.73;5.50;;;;;;;15.52;54.44;97541.00;5008658;28;20255;-69
2023/05/28 04:37:53;;;;;;;7.23;5.53;;;;;;;15.58;54.27;97541.31;5008551;28;20180;-72
2023/05/28 04:40:18;;;;;;;9.93;5.67;;;;;;;15.62;54.18;97545.25;5007662;28;20475;-70
2023/05/28 04:42:43;;;;;;;10.53;6.00;;;;;;;15.67;54.33;97548.19;5013406;28;20509;-71
2023/05/28 04:45:10;;;;;;;8.80;5.63;;;;;;;15.68;54.37;97547.19;5014344;28;20180;-70
2023/05/28 04:47:38;;;;;;;9.10;5.20;;;;;;;15.68;54.51;97557.75;5016485;28;20713;-71
2023/05/28 04:50:06;;;;;;;8.77;4.97;;;;;;;15.76;54.56;97557.69;5009842;28;20892;-71
2023/05/28 04:52:32;;;;;;;10.43;5.60;;;;;;;15.81;54.52;97547.41;5012397;28;20872;-70
2023/05/28 04:54:58;;;;;;;8.13;5.20;;;;;;;15.85;54.46;97545.25;5006729;28;20439;-70
2023/05/28 04:57:24;;;;;;;14.23;5.83;;;;;;;15.95;54.14;97555.59;4999625;28;20435;-71
2023/05/28 04:59:49;;;;;;;9.80;6.10;;;;;;;15.97;54.10;97559.69;5008092;28;20200;-71
2023/05/28 05:02:18;;;;;;;7.90;5.70;;;;;;;16.07;54.27;97558.63;5008521;28;20181;-71
2023/05/28 05:04:46;;;;;;;7.60;5.70;;;;;;;16.15;54.10;97555.09;5012498;28;20230;-71
2023/05/28 05:07:12;;;;;;;9.80;5.40;;;;;;;16.19;54.18;97559.03;5009819;28;20428;-71
2023/05/28 05:09:38;;;;;;;6.87;5.60;;;;;;;16.25;54.06;97558.31;5008893;28;20448;-71
2023/05/28 05:12:03;;;;;;;7.60;6.20;;;;;;;16.29;54.04;97556.94;5000044;28;20204;-72
2023/05/28 05:14:29;;;;;;;8.47;5.50;;;;;;;16.33;54.01;97555.59;5020602;28;20179;-71
2023/05/28 05:16:54;;;;;;;10.37;5.70;;;;;;;16.37;54.25;97553.41;5012965;28;20227;-70
2023/05/28 05:19:19;;;;;;;9.50;6.23;;;;;;;16.44;53.91;97556.97;5019375;28;20280;-70
2023/05/28 05:21:45;;;;;;;11.77;6.50;;;;;;;16.40;53.51;97556.50;5012206;28;20259;-72
2023/05/28 05:24:10;;;;;;;9.87;6.03;;;;;;;16.41;53.52;97563.44;5012998;28;20803;-72
2023/05/28 05:26:36;;;;;;;8.70;6.37;;;;;;;16.50;53.69;97558.88;5012219;28;20210;-71
2023/05/28 05:29:01;;;;;;;11.37;6.13;;;;;;;16.65;52.36;97558.88;5012401;28;20303;-70
2023/05/28 05:31:27;;;;;;;9.73;6.10;;;;;;;16.81;52.38;97557.06;5015052;28;20219;-71
2023/05/28 05:33:52;;;;;;;11.00;5.70;;;;;;;16.98;51.97;97557.72;5012299;28;20235;-71
2023/05/28 05:36:17;;;;;;;10.53;6.10;;;;;;;17.16;51.59;97557.31;5016250;28;20212;-70
2023/05/28 05:38:45;;;;;;;16.53;6.03;;;;;;;17.33;50.85;97553.44;5014431;28;20263;-71
2023/05/28 05:41:11;;;;;;;12.30;5.80;;;;;;;17.48;49.31;97552.59;5011463;28;20193;-71
2023/05/28 05:43:36;;;;;;;14.97;6.43;;;;;;;17.62;48.44;97562.31;5003229;28;20508;-70
2023/05/28 05:46:02;;;;;;;9.80;5.90;;;;;;;17.74;47.23;97557.31;5018072;28;20249;-70
2023/05/28 05:48:27;;;;;;;9.37;5.90;;;;;;;17.91;46.67;97554.41;5023533;28;20214;-70
2023/05/28 05:50:57;;;;;;;17.50;5.53;;;;;;;18.06;46.58;97551.72;5016117;28;20195;-71
2023/05/28 05:53:23;;;;;;;11.17;5.87;;;;;;;18.21;46.47;97549.78;5013383;28;20644;-70
2023/05/28 05:55:49;;;;;;;10.07;5.50;;;;;;;18.37;46.35;97555.81;5012672;28;20517;-70
2023/05/28 05:58:14;;;;;;;10.53;5.83;;;;;;;18.55;47.14;97556.13;5019486;28;20176;-71
2023/05/28 06:00:40;;;;;;;9.60;5.47;;;;;;;18.71;47.05;97544.38;5019943;28;20207;-71
2023/05/28 06:03:06;;;;;;;9.37;4.70;;;;;;;18.85;45.88;97550.59;5020853;28;20180;-71
2023/05/28 06:05:32;;;;;;;11.63;5.57;;;;;;;19.00;45.27;97555.78;5015679;28;21158;-70
2023/05/28 06:07:58;;;;;;;8.43;4.90;;;;;;;19.16;45.16;97553.81;5012879;28;20184;-70
2023/05/28 06:10:23;;;;;;;11.57;5.50;;;;;;;19.30;45.11;97557.31;5023872;28;20454;-71
2023/05/28 06:12:48;;;;;;;18.43;9.10;;;;;;;19.45;44.30;97549.19;5011744;28;20188;-71
2023/05/28 06:15:14;;;;;;;11.30;5.57;;;;;;;19.60;43.22;97559.66;5015287;28;20210;-73
2023/05/28 06:17:41;;;;;;;7.03;4.70;;;;;;;19.74;43.73;97560.47;5015446;28;20180;-71
2023/05/28 06:20:07;;;;;;;8.00;4.93;;;;;;;19.89;43.54;97555.03;5011354;28;20200;-71
2023/05/28 06:22:33;;;;;;;11.50;5.57;;;;;;;20.04;42.90;97557.47;5013348;28;20453;-70
2023/05/28 06:25:00;;;;;;;9.57;5.07;;;;;;;20.18;41.94;97563.59;5019144;28;20521;-69
2023/05/28 06:27:26;;;;;;;7.77;5.10;;;;;;;20.33;42.24;97561.56;5014482;28;20195;-71
2023/05/28 06:29:51;;;;;;;10.50;5.57;;;;;;;20.49;42.21;97549.66;5023901;28;20435;-72
2023/05/28 06:32:17;;;;;;;10.43;5.67;;;;;;;20.62;40.99;97556.81;5013189;28;20680;-71
2023/05/28 06:34:43;;;;;;;10.70;4.77;;;;;;;20.76;40.63;97562.13;5011265;28;20267;-69
2023/05/28 06:37:08;;;;;;;11.97;5.77;;;;;;;20.88;40.23;97557.78;5010530;28;20210;-70
2023/05/28 06:39:34;;;;;;;10.37;5.53;;;;;;;21.05;40.16;97554.63;5010932;28;20181;-72
2023/05/28 06:41:59;;;;;;;13.83;5.50;;;;;;;21.09;38.24;97563.84;5011102;28;20176;-71
2023/05/28 06:44:25;;;;;;;9.47;5.00;;;;;;;21.22;38.58;97561.13;5013549;28;20204;-70
2023/05/28 06:46:50;;;;;;;14.50;5.00;;;;;;;21.38;38.37;97553.69;5019223;28;20248;-70
2023/05/28 06:49:18;;;;;;;10.10;5.83;;;;;;;21.54;39.09;97563.84;5015721;28;20195;-70
2023/05/28 06:51:43;;;;;;;10.83;5.30;;;;;;;21.68;38.49;97569.94;5015578;28;20200;-70
2023/05/28 06:54:09;;;;;;;8.30;5.47;;;;;;;21.84;38.46;97559.78;5011124;28;20423;-70
2023/05/28 06:56:35;;;;;;;8.73;4.97;;;;;;;21.96;38.04;97558.06;5012003;28;20184;-70
2023/05/28 06:59:00;;;;;;;14.10;5.40;;;;;;;22.11;37.93;97549.72;5013428;28;20239;-70
2023/05/28 07:01:26;;;;;;;8.67;5.10;;;;;;;22.13;36.67;97555.66;5012888;28;20463;-70
2023/05/28 07:03:51;;;;;;;8.60;5.17;;;;;;;22.20;37.01;97559.09;5010444;28;20577;-72
2023/05/28 07:06:17;;;;;;;9.07;4.70;;;;;;;22.33;36.98;97563.50;5018055;28;20183;-70
2023/05/28 07:08:44;;;;;;;13.87;5.47;;;;;;;22.44;36.38;97561.97;5017707;28;20284;-72
2023/05/28 07:11:13;;;;;;;10.83;5.40;;;;;;;22.61;36.45;97564.09;5011575;28;20311;-73
2023/05/28 07:13:39;;;;;;;8.27;5.03;;;;;;;22.71;36.23;97556.38;5017745;28;20417;-72
2023/05/28 07:16:06;;;;;;;13.07;5.00;;;;;;;22.74;35.50;97563.94;5012186;28;20447;-72
2023/05/28 07:18:31;;;;;;;8.87;4.83;;;;;;;22.88;36.08;97558.47;5014978;28;20445;-70
2023/05/28 07:20:57;;;;;;;11.03;5.50;;;;;;;22.91;35.32;97566.84;5010662;28;20467;-72
2023/05/28 07:23:22;;;;;;;12.27;5.33;;;;;;;23.00;35.68;97568.16;5013111;28;20259;-72
2023/05/28 07:25:47;;;;;;;7.87;4.80;;;;;;;23.12;35.87;97562.91;5011183;28;20569;-71
2023/05/28 07:28:13;;;;;;;12.57;5.67;;;;;;;23.28;35.75;97563.34;5010457;28;20172;-72
2023/05/28 07:30:41;;;;;;;7.50;4.77;;;;;;;23.39;35.24;97565.25;5025103;28;20274;-72
2023/05/28 07:33:06;;;;;;;14.23;5.20;;;;;;;23.51;35.32;97567.16;5010698;28;20217;-71
2023/05/28 07:35:32;;;;;;;10.93;5.23;;;;;;;23.64;35.30;97561.63;5015752;28;21042;-71
2023/05/28 07:37:57;;;;;;;11.27;4.97;;;;;;;23.71;34.96;97566.88;5010342;28;20772;-70
2023/05/28 07:40:22;;;;;;;11.93;5.63;;;;;;;23.86;34.95;97572.63;5017957;28;20204;-71
2023/05/28 07:42:48;;;;;;;10.47;5.70;;;;;;;23.96;34.55;97563.25;5007826;28;20226;-70
2023/05/28 07:45:13;;;;;;;12.70;5.47;;;;;;;24.10;34.17;97566.50;5017947;28;20548;-71
2023/05/28 07:47:39;;;;;;;8.53;5.13;;;;;;;24.14;34.29;97565.00;5020703;28;20181;-72
2023/05/28 07:50:05;;;;;;;7.80;5.60;;;;;;;24.21;33.70;97568.38;5010695;28;20200;-71
2023/05/28 07:52:30;;;;;;;11.10;4.93;;;;;;;24.35;33.91;97567.13;5013488;28;20653;-71
2023/05/28 07:54:59;;;;;;;18.40;5.67;;;;;;;24.44;32.95;97566.78;5011534;28;20522;-71
2023/05/28 07:57:25;;;;;;;8.40;5.03;;;;;;;24.54;33.64;97567.00;5011694;28;20184;-71
2023/05/28 07:59:51;;;;;;;9.63;5.20;;;;;;;24.69;33.08;97566.56;5019433;28;20458;-72
2023/05/28 08:02:16;;;;;;;6.60;5.07;;;;;;;24.83;33.17;97569.78;5017239;28;20208;-72
2023/05/28 08:04:42;;;;;;;8.87;5.27;;;;;;;24.91;32.56;97563.25;5012800;28;20176;-71
2023/05/28 08:07:09;;;;;;;8.80;5.23;;;;;;;25.06;32.48;97565.44;5008426;28;20559;-71
2023/05/28 08:09:35;;;;;;;10.70;5.40;;;;;;;25.19;32.77;97565.19;5006639;28;20183;-71
2023/05/28 08:12:01;;;;;;;10.93;4.97;;;;;;;25.32;32.22;97566.75;5017757;28;20462;-72
2023/05/28 08:14:27;;;;;;;10.17;5.50;;;;;;;25.47;31.46;97563.56;5009563;28;20183;-71
2023/05/28 08:16:53;;;;;;;9.07;5.50;;;;;;;25.57;31.75;97561.09;5013560;28;20422;-69
2023/05/28 08:19:18;;;;;;;9.63;5.27;;;;;;;25.64;31.60;97568.16;5009760;28;20173;-71
2023/05/28 08:21:44;;;;;;;8.40;4.50;;;;;;;25.76;31.54;97558.19;5009402;28;20277;-71
2023/05/28 08:24:10;;;;;;;9.70;5.20;;;;;;;25.80;30.49;97561.19;5018107;28;20173;-72
2023/05/28 08:26:36;;;;;;;11.70;5.83;;;;;;;25.94;31.00;97561.72;5001289;28;20267;-72
2023/05/28 08:29:02;;;;;;;8.50;4.67;;;;;;;26.09;30.79;97556.56;5017407;28;20420;-71
2023/05/28 08:31:28;;;;;;;11.27;5.17;;;;;;;26.10;30.51;97558.22;5016741;28;20474;-70
2023/05/28 08:33:53;;;;;;;9.50;5.00;;;;;;;26.18;29.29;97555.16;5008710;28;20442;-72
2023/05/28 08:36:19;;;;;;;10.40;4.83;;;;;;;26.21;29.55;97554.63;5008713;28;20180;-71
2023/05/28 08:38:44;;;;;;;10.30;5.27;;;;;;;26.34;30.07;97552.66;5012781;28;20198;-73
2023/05/28 08:41:10;;;;;;;11.33;4.57;;;;;;;26.44;29.70;97542.09;5010723;28;20962;-71
2023/05/28 08:43:35;;;;;;;12.10;5.53;;;;;;;26.50;29.35;97541.09;5010783;28;20195;-72
2023/05/28 08:46:01;;;;;;;10.83;5.00;;;;;;;26.56;29.40;97535.78;5007440;28;20219;-71
2023/05/28 08:48:27;;;;;;;13.53;5.27;;;;;;;26.68;28.99;97533.81;5019367;28;20189;-73
2023/05/28 08:50:54;;;;;;;6.57;4.57;;;;;;;26.78;28.55;97533.97;5013959;28;20946;-70
2023/05/28 08:53:21;;;;;;;10.63;5.37;;;;;;;26.81;29.01;97527.28;5007165;28;20439;-71
2023/05/28 08:55:47;;;;;;;8.87;4.67;;;;;;;26.92;28.70;97528.22;5009002;28;21008;-71
2023/05/28 08:58:13;;;;;;;7.10;4.33;;;;;;;27.06;28.50;97529.47;5012597;28;20423;-70
2023/05/28 09:00:38;;;;;;;8.63;4.80;;;;;;;27.18;28.63;97528.50;5009652;28;20204;-71
2023/05/28 09:03:07;;;;;;;9.77;4.90;;;;;;;27.27;28.17;97521.59;5028943;28;20269;-72
2023/05/28 09:05:37;;;;;;;9.23;4.70;;;;;;;27.40;28.93;97520.41;5016949;28;20181;-70
2023/05/28 09:08:07;;;;;;;7.60;4.23;;;;;;;27.51;28.17;97518.66;5013965;28;20521;-71
2023/05/28 09:10:33;;;;;;;10.43;4.70;;;;;;;27.60;27.88;97514.41;5008387;28;20968;-70
2023/05/28 09:12:59;;;;;;;6.93;4.70;;;;;;;27.71;27.56;97516.16;5009117;28;20932;-72
2023/05/28 09:15:25;;;;;;;11.57;4.80;;;;;;;27.82;27.29;97502.78;5009856;28;20959;-71
2023/05/28 09:17:50;;;;;;;11.57;4.80;;;;;;;27.97;27.12;97512.84;5016208;28;20431;-71
2023/05/28 09:20:16;;;;;;;8.37;4.40;;;;;;;28.08;27.22;97506.47;5008321;28;20872;-74
2023/05/28 09:22:43;;;;;;;8.00;4.23;;;;;;;28.25;27.75;97503.63;5015189;28;20751;-70
2023/05/28 09:25:09;;;;;;;11.57;4.57;;;;;;;28.38;27.71;97506.94;5009696;28;20428;-72
2023/05/28 09:27:36;;;;;;;9.53;5.20;;;;;;;28.50;26.93;97505.66;5006417;28;20428;-74
2023/05/28 09:30:04;;;;;;;7.90;4.63;;;;;;;28.59;26.36;97513.25;5008386;28;20208;-72
2023/05/28 09:32:29;;;;;;;9.10;5.10;;;;;;;28.69;26.81;97501.72;5008301;28;20451;-71
2023/05/28 09:34:56;;;;;;;11.67;4.27;;;;;;;28.84;26.61;97512.59;5013899;28;20487;-73
2023/05/28 09:37:21;;;;;;;12.00;4.80;;;;;;;28.82;26.16;97509.34;5013424;28;20298;-74
2023/05/28 09:39:47;;;;;;;9.30;4.37;;;;;;;28.84;26.02;97504.50;5013076;28;20963;-71
2023/05/28 09:42:15;;;;;;;9.60;5.00;;;;;;;28.96;25.83;97504.25;5015988;28;20302;-72
2023/05/28 09:44:42;;;;;;;7.80;4.30;;;;;;;29.02;25.83;97494.31;5015118;28;20510;-71
2023/05/28 09:47:18;;;;;;;7.60;4.80;;;;;;;29.01;26.03;97498.06;5014716;28;20430;-73
2023/05/28 09:49:45;;;;;;;9.00;4.13;;;;;;;28.99;26.13;97501.03;5048036;28;20426;-71
2023/05/28 09:52:16;;;;;;;9.63;4.57;;;;;;;29.12;25.72;97495.16;5016069;28;21065;-72
2023/05/28 09:54:45;;;;;;;14.43;5.10;;;;;;;29.19;25.75;97489.50;5013466;28;20438;-72
2023/05/28 09:57:11;;;;;;;8.33;4.67;;;;;;;29.31;25.54;97493.84;5009118;28;20427;-71
2023/05/28 09:59:38;;;;;;;8.53;4.50;;;;;;;29.25;24.96;97493.03;5017955;28;20446;-71
2023/05/28 10:02:26;;;;;;;11.00;4.67;;;;;;;29.28;26.21;97493.28;5017832;28;20447;-72
2023/05/28 10:04:54;;;;;;;7.63;4.40;;;;;;;29.24;25.97;97491.41;5018262;28;20424;-70
2023/05/28 10:07:21;;;;;;;9.97;4.60;;;;;;;29.26;25.50;97498.13;5019603;28;20520;-72
2023/05/28 10:09:47;;;;;;;9.67;4.50;;;;;;;29.30;25.06;97501.09;5010143;28;20435;-72
2023/05/28 10:12:18;;;;;;;14.13;4.83;;;;;;;29.27;25.53;97505.16;5010072;28;20467;-73
2023/05/28 10:14:45;;;;;;;11.67;4.60;;;;;;;29.40;24.53;97497.66;5023510;28;20184;-70
2023/05/28 10:17:10;;;;;;;7.90;4.47;;;;;;;29.56;25.49;97503.88;5019145;28;20450;-70
2023/05/28 10:19:37;;;;;;;10.60;4.80;;;;;;;29.73;25.36;97498.22;5012281;28;20425;-71
2023/05/28 10:22:02;;;;;;;7.17;4.00;;;;;;;29.88;24.89;97498.22;5015234;28;20185;-71
2023/05/28 10:24:28;;;;;;;5.07;3.90;;;;;;;29.89;24.17;97493.63;5011419;28;21267;-71
2023/05/28 10:26:54;;;;;;;6.57;4.17;;;;;;;29.98;25.91;97493.94;5011038;28;20184;-72
2023/05/28 10:29:20;;;;;;;8.10;4.00;;;;;;;30.12;24.37;97489.56;5022184;28;20423;-70
2023/05/28 10:31:57;;;;;;;8.10;4.80;;;;;;;30.21;24.58;97492.53;5012972;28;20307;-71
2023/05/28 10:34:29;;;;;;;7.33;4.10;;;;;;;30.32;24.78;97496.03;5011193;28;20512;-72
2023/05/28 10:36:55;;;;;;;10.40;4.97;;;;;;;30.45;25.24;97497.31;5022703;28;20435;-70
2023/05/28 10:39:20;;;;;;;9.27;4.53;;;;;;;30.47;24.45;97489.75;5018071;28;20431;-71
2023/05/28 10:41:46;;;;;;;8.40;4.00;;;;;;;30.53;24.68;97490.53;5022656;28;20222;-70
2023/05/28 10:44:11;;;;;;;7.77;4.13;;;;;;;30.63;24.81;97491.38;5016398;28;20288;-71
2023/05/28 10:46:40;;;;;;;8.77;4.63;;;;;;;30.78;24.14;97485.06;5016010;28;20243;-71
2023/05/28 10:49:12;;;;;;;8.40;4.47;;;;;;;30.89;23.50;97480.44;5010810;28;20204;-71
2023/05/28 10:51:56;;;;;;;10.07;4.23;;;;;;;30.66;23.63;97487.28;5010482;28;20621;-70
2023/05/28 10:54:24;;;;;;;5.53;3.53;;;;;;;30.80;23.52;97488.31;5010956;28;20789;-71
2023/05/28 10:57:11;;;;;;;9.27;4.10;;;;;;;30.89;22.81;97490.44;5052549;28;20458;-70
2023/05/28 10:59:45;;;;;;;9.60;3.90;;;;;;;30.97;22.53;97476.34;5019057;28;21042;-71
2023/05/28 11:02:12;;;;;;;8.43;4.43;;;;;;;31.03;22.74;97482.53;5017708;28;20429;-70
2023/05/28 11:04:39;;;;;;;11.87;3.87;;;;;;;30.92;22.19;97476.34;5020811;28;20437;-70
2023/05/28 11:07:05;;;;;;;6.70;4.00;;;;;;;30.82;22.56;97473.72;5017995;28;21061;-70
2023/05/28 11:09:31;;;;;;;10.33;4.23;;;;;;;30.75;22.00;97468.59;5022178;28;20426;-71
2023/05/28 11:12:01;;;;;;;10.60;3.90;;;;;;;30.77;22.47;97474.53;5009972;28;20429;-71
2023/05/28 11:14:37;;;;;;;10.77;4.00;;;;;;;30.84;22.51;97471.53;5010651;28;20208;-72
2023/05/28 11:17:10;;;;;;;6.47;4.20;;;;;;;30.87;22.71;97477.19;4992317;28;20948;-70
2023/05/28 11:19:50;;;;;;;9.53;3.97;;;;;;;30.98;22.46;97477.97;5018077;28;20773;-71
2023/05/28 11:22:20;;;;;;;6.67;3.70;;;;;;;30.95;21.38;97463.06;5015929;28;20426;-71
2023/05/28 11:25:09;;;;;;;7.60;3.90;;;;;;;31.08;21.98;97458.97;5010925;28;20439;-71